sensor_id;sensor_type;location;lat;lon;timestamp;noise_LAeq;noise_LA_min;noise_LA_max;noise_LA01;noise_LA95
59284;Laerm;45056;47.602;9.886;2023-04-10T00:02:12;42.97;35.36;54.75;;
59284;Laerm;45056;47.602;9.886;2023-04-10T00:04:40;40.30;36.91;42.71;;
59284;Laerm;45056;47.602;9.886;2023-04-10T00:07:10;40.42;35.04;49.80;;
59284;Laerm;45056;47.602;9.886;2023-04-10T00:09:38;39.10;35.36;43.72;;
59284;Laerm;45056;47.602;9.886;2023-04-10T00:12:06;39.92;35.94;45.11;;
59284;Laerm;45056;47.602;9.886;2023-04-10T00:14:34;39.42;34.69;48.19;;
59284;Laerm;45056;47.602;9.886;2023-04-10T00:17:02;41.62;35.94;55.30;;
59284;Laerm;45056;47.602;9.886;2023-04-10T00:19:30;39.44;35.36;45.30;;
59284;Laerm;45056;47.602;9.886;2023-04-10T00:21:58;41.20;35.66;56.16;;
59284;Laerm;45056;47.602;9.886;2023-04-10T00:24:28;38.70;35.36;41.68;;
59284;Laerm;45056;47.602;9.886;2023-04-10T00:26:56;40.78;35.94;54.84;;
59284;Laerm;45056;47.602;9.886;2023-04-10T00:29:24;38.81;35.36;42.85;;
59284;Laerm;45056;47.602;9.886;2023-04-10T00:31:52;39.93;34.69;55.18;;
59284;Laerm;45056;47.602;9.886;2023-04-10T00:34:20;38.89;35.94;42.03;;
59284;Laerm;45056;47.602;9.886;2023-04-10T00:36:48;40.03;35.36;53.90;;
59284;Laerm;45056;47.602;9.886;2023-04-10T00:39:16;38.29;35.01;40.71;;
59284;Laerm;45056;47.602;9.886;2023-04-10T00:41:45;38.68;35.36;41.61;;
59284;Laerm;45056;47.602;9.886;2023-04-10T00:44:13;39.28;35.36;43.54;;
59284;Laerm;45056;47.602;9.886;2023-04-10T00:46:42;41.99;35.66;53.63;;
59284;Laerm;45056;47.602;9.886;2023-04-10T00:49:10;40.40;36.20;43.94;;
59284;Laerm;45056;47.602;9.886;2023-04-10T00:51:39;39.34;35.66;42.76;;
59284;Laerm;45056;47.602;9.886;2023-04-10T00:54:08;38.36;35.04;44.73;;
59284;Laerm;45056;47.602;9.886;2023-04-10T00:56:38;38.91;35.04;43.19;;
59284;Laerm;45056;47.602;9.886;2023-04-10T00:59:08;39.53;35.36;44.35;;
59284;Laerm;45056;47.602;9.886;2023-04-10T01:01:36;42.86;35.66;56.40;;
59284;Laerm;45056;47.602;9.886;2023-04-10T01:04:04;39.03;35.36;43.49;;
59284;Laerm;45056;47.602;9.886;2023-04-10T01:06:52;38.68;35.04;42.53;;
59284;Laerm;45056;47.602;9.886;2023-04-10T01:09:35;38.47;35.36;42.82;;
59284;Laerm;45056;47.602;9.886;2023-04-10T01:12:24;42.78;35.36;57.43;;
59284;Laerm;45056;47.602;9.886;2023-04-10T01:15:06;40.97;35.66;53.90;;
59284;Laerm;45056;47.602;9.886;2023-04-10T01:17:44;38.60;35.04;41.82;;
59284;Laerm;45056;47.602;9.886;2023-04-10T01:20:19;38.71;35.36;42.06;;
59284;Laerm;45056;47.602;9.886;2023-04-10T01:23:17;40.14;35.04;53.06;;
59284;Laerm;45056;47.602;9.886;2023-04-10T01:25:58;38.92;35.04;44.23;;
59284;Laerm;45056;47.602;9.886;2023-04-10T01:28:51;42.52;36.20;55.54;;
59284;Laerm;45056;47.602;9.886;2023-04-10T01:31:30;42.12;35.36;55.03;;
59284;Laerm;45056;47.602;9.886;2023-04-10T01:34:09;38.45;35.59;41.61;;
59284;Laerm;45056;47.602;9.886;2023-04-10T01:36:49;38.78;35.36;42.82;;
59284;Laerm;45056;47.602;9.886;2023-04-10T01:39:21;38.38;34.69;41.30;;
59284;Laerm;45056;47.602;9.886;2023-04-10T01:41:53;41.43;35.36;55.25;;
59284;Laerm;45056;47.602;9.886;2023-04-10T01:44:29;40.36;35.04;54.48;;
59284;Laerm;45056;47.602;9.886;2023-04-10T01:47:00;40.46;35.59;53.51;;
59284;Laerm;45056;47.602;9.886;2023-04-10T01:49:32;40.19;35.04;53.64;;
59284;Laerm;45056;47.602;9.886;2023-04-10T01:52:01;38.20;35.04;42.47;;
59284;Laerm;45056;47.602;9.886;2023-04-10T01:54:31;39.27;35.36;44.27;;
59284;Laerm;45056;47.602;9.886;2023-04-10T01:57:01;38.57;35.66;42.53;;
59284;Laerm;45056;47.602;9.886;2023-04-10T01:59:32;40.18;35.04;52.94;;
59284;Laerm;45056;47.602;9.886;2023-04-10T02:02:00;42.05;34.69;53.43;;
59284;Laerm;45056;47.602;9.886;2023-04-10T02:04:30;41.03;35.04;56.29;;
59284;Laerm;45056;47.602;9.886;2023-04-10T02:07:02;38.19;34.69;42.29;;
59284;Laerm;45056;47.602;9.886;2023-04-10T02:09:44;38.14;34.69;41.14;;
59284;Laerm;45056;47.602;9.886;2023-04-10T02:12:21;39.80;35.36;42.93;;
59284;Laerm;45056;47.602;9.886;2023-04-10T02:14:56;40.03;35.04;44.11;;
59284;Laerm;45056;47.602;9.886;2023-04-10T02:17:28;38.88;34.69;53.70;;
59284;Laerm;45056;47.602;9.886;2023-04-10T02:19:58;38.21;34.31;42.88;;
59284;Laerm;45056;47.602;9.886;2023-04-10T02:22:27;38.23;33.90;40.43;;
59284;Laerm;45056;47.602;9.886;2023-04-10T02:24:57;38.54;35.04;42.22;;
59284;Laerm;45056;47.602;9.886;2023-04-10T02:27:28;38.18;32.93;41.68;;
59284;Laerm;45056;47.602;9.886;2023-04-10T02:29:57;38.20;34.69;40.63;;
59284;Laerm;45056;47.602;9.886;2023-04-10T02:32:25;39.51;34.69;54.12;;
59284;Laerm;45056;47.602;9.886;2023-04-10T02:34:54;38.12;34.69;41.14;;
59284;Laerm;45056;47.602;9.886;2023-04-10T02:37:22;40.11;35.04;51.85;;
59284;Laerm;45056;47.602;9.886;2023-04-10T02:39:51;38.45;34.69;41.61;;
59284;Laerm;45056;47.602;9.886;2023-04-10T02:42:20;41.25;34.69;54.52;;
59284;Laerm;45056;47.602;9.886;2023-04-10T02:44:48;38.91;35.36;42.88;;
59284;Laerm;45056;47.602;9.886;2023-04-10T02:47:17;39.97;34.69;51.70;;
59284;Laerm;45056;47.602;9.886;2023-04-10T02:49:45;42.04;36.20;55.30;;
59284;Laerm;45056;47.602;9.886;2023-04-10T02:52:14;39.57;34.69;43.34;;
59284;Laerm;45056;47.602;9.886;2023-04-10T02:54:43;38.43;34.69;41.38;;
59284;Laerm;45056;47.602;9.886;2023-04-10T02:57:11;38.40;34.31;40.80;;
59284;Laerm;45056;47.602;9.886;2023-04-10T02:59:38;38.69;34.31;44.80;;
59284;Laerm;45056;47.602;9.886;2023-04-10T03:02:07;42.08;35.01;52.49;;
59284;Laerm;45056;47.602;9.886;2023-04-10T03:04:36;43.61;36.20;60.66;;
59284;Laerm;45056;47.602;9.886;2023-04-10T03:07:04;39.36;35.01;45.11;;
59284;Laerm;45056;47.602;9.886;2023-04-10T03:09:32;39.90;33.90;43.14;;
59284;Laerm;45056;47.602;9.886;2023-04-10T03:12:00;41.06;35.36;54.56;;
59284;Laerm;45056;47.602;9.886;2023-04-10T03:14:28;39.78;36.20;42.29;;
59284;Laerm;45056;47.602;9.886;2023-04-10T03:16:56;41.92;36.45;54.68;;
59284;Laerm;45056;47.602;9.886;2023-04-10T03:19:24;39.19;35.04;42.41;;
59284;Laerm;45056;47.602;9.886;2023-04-10T03:21:55;40.28;34.69;54.91;;
59284;Laerm;45056;47.602;9.886;2023-04-10T03:24:23;38.55;34.34;49.06;;
59284;Laerm;45056;47.602;9.886;2023-04-10T03:26:51;41.13;35.04;52.70;;
59284;Laerm;45056;47.602;9.886;2023-04-10T03:29:19;41.48;36.20;52.64;;
59284;Laerm;45056;47.602;9.886;2023-04-10T03:31:48;41.81;35.36;55.59;;
59284;Laerm;45056;47.602;9.886;2023-04-10T03:34:16;40.38;35.36;54.44;;
59284;Laerm;45056;47.602;9.886;2023-04-10T03:36:44;43.12;35.66;57.95;;
59284;Laerm;45056;47.602;9.886;2023-04-10T03:39:13;39.34;34.69;45.77;;
59284;Laerm;45056;47.602;9.886;2023-04-10T03:41:41;39.70;34.69;47.59;;
59284;Laerm;45056;47.602;9.886;2023-04-10T03:44:09;39.32;34.31;45.80;;
59284;Laerm;45056;47.602;9.886;2023-04-10T03:46:37;42.59;36.45;53.81;;
59284;Laerm;45056;47.602;9.886;2023-04-10T03:49:06;41.60;35.36;54.64;;
59284;Laerm;45056;47.602;9.886;2023-04-10T03:51:34;40.05;35.36;56.05;;
59284;Laerm;45056;47.602;9.886;2023-04-10T03:54:02;41.72;35.36;54.07;;
59284;Laerm;45056;47.602;9.886;2023-04-10T03:56:31;41.97;35.66;53.59;;
59284;Laerm;45056;47.602;9.886;2023-04-10T03:58:59;38.99;35.36;45.83;;
59284;Laerm;45056;47.602;9.886;2023-04-10T04:01:27;43.35;35.66;53.11;;
59284;Laerm;45056;47.602;9.886;2023-04-10T04:03:56;40.42;35.36;52.89;;
59284;Laerm;45056;47.602;9.886;2023-04-10T04:06:24;40.65;35.66;48.54;;
59284;Laerm;45056;47.602;9.886;2023-04-10T04:08:52;41.52;35.04;57.08;;
59284;Laerm;45056;47.602;9.886;2023-04-10T04:11:20;40.00;35.66;49.78;;
59284;Laerm;45056;47.602;9.886;2023-04-10T04:13:50;39.77;35.94;48.67;;
59284;Laerm;45056;47.602;9.886;2023-04-10T04:16:18;41.49;35.66;53.37;;
59284;Laerm;45056;47.602;9.886;2023-04-10T04:18:46;40.09;36.10;48.07;;
59284;Laerm;45056;47.602;9.886;2023-04-10T04:21:14;40.28;36.56;44.94;;
59284;Laerm;45056;47.602;9.886;2023-04-10T04:23:42;40.16;35.66;48.43;;
59284;Laerm;45056;47.602;9.886;2023-04-10T04:26:10;39.62;36.10;45.42;;
59284;Laerm;45056;47.602;9.886;2023-04-10T04:28:38;39.99;36.20;47.22;;
59284;Laerm;45056;47.602;9.886;2023-04-10T04:31:07;44.38;36.20;58.31;;
59284;Laerm;45056;47.602;9.886;2023-04-10T04:33:35;42.41;36.91;48.29;;
59284;Laerm;45056;47.602;9.886;2023-04-10T04:36:04;42.76;36.56;54.40;;
59284;Laerm;45056;47.602;9.886;2023-04-10T04:38:32;43.09;36.69;54.95;;
59284;Laerm;45056;47.602;9.886;2023-04-10T04:41:00;40.19;35.66;47.90;;
59284;Laerm;45056;47.602;9.886;2023-04-10T04:43:28;40.18;36.20;48.48;;
59284;Laerm;45056;47.602;9.886;2023-04-10T04:45:57;41.48;35.94;52.45;;
59284;Laerm;45056;47.602;9.886;2023-04-10T04:48:26;43.82;36.69;57.50;;
59284;Laerm;45056;47.602;9.886;2023-04-10T04:50:54;42.33;35.94;54.55;;
59284;Laerm;45056;47.602;9.886;2023-04-10T04:53:22;41.76;36.56;52.49;;
59284;Laerm;45056;47.602;9.886;2023-04-10T04:55:50;42.19;36.45;53.94;;
59284;Laerm;45056;47.602;9.886;2023-04-10T04:58:18;42.03;36.91;48.69;;
59284;Laerm;45056;47.602;9.886;2023-04-10T05:00:47;44.77;36.45;56.33;;
59284;Laerm;45056;47.602;9.886;2023-04-10T05:03:15;41.23;36.91;53.46;;
59284;Laerm;45056;47.602;9.886;2023-04-10T05:05:45;40.68;34.69;63.04;;
59284;Laerm;45056;47.602;9.886;2023-04-10T05:08:13;44.05;35.94;55.83;;
59284;Laerm;45056;47.602;9.886;2023-04-10T05:10:41;42.61;36.20;54.25;;
59284;Laerm;45056;47.602;9.886;2023-04-10T05:13:09;41.20;36.45;54.81;;
59284;Laerm;45056;47.602;9.886;2023-04-10T05:15:37;44.18;35.94;59.57;;
59284;Laerm;45056;47.602;9.886;2023-04-10T05:18:06;44.47;36.98;55.90;;
59284;Laerm;45056;47.602;9.886;2023-04-10T05:20:34;44.17;35.66;58.01;;
59284;Laerm;45056;47.602;9.886;2023-04-10T05:23:04;43.06;37.12;57.57;;
59284;Laerm;45056;47.602;9.886;2023-04-10T05:25:32;40.02;35.66;47.81;;
59284;Laerm;45056;47.602;9.886;2023-04-10T05:28:00;42.29;36.20;51.61;;
59284;Laerm;45056;47.602;9.886;2023-04-10T05:30:28;48.77;36.45;61.61;;
59284;Laerm;45056;47.602;9.886;2023-04-10T05:32:56;48.88;37.32;63.38;;
59284;Laerm;45056;47.602;9.886;2023-04-10T05:35:24;43.76;36.91;57.08;;
59284;Laerm;45056;47.602;9.886;2023-04-10T05:37:52;41.87;36.45;54.87;;
59284;Laerm;45056;47.602;9.886;2023-04-10T05:40:21;41.18;36.91;53.08;;
59284;Laerm;45056;47.602;9.886;2023-04-10T05:42:49;43.78;36.91;56.71;;
59284;Laerm;45056;47.602;9.886;2023-04-10T05:45:17;43.27;36.45;55.37;;
59284;Laerm;45056;47.602;9.886;2023-04-10T05:47:45;40.62;36.10;54.29;;
59284;Laerm;45056;47.602;9.886;2023-04-10T05:50:13;41.35;36.20;51.26;;
59284;Laerm;45056;47.602;9.886;2023-04-10T05:52:41;41.04;36.20;49.41;;
59284;Laerm;45056;47.602;9.886;2023-04-10T05:55:11;42.00;38.05;45.99;;
59284;Laerm;45056;47.602;9.886;2023-04-10T05:57:40;42.53;35.36;55.97;;
59284;Laerm;45056;47.602;9.886;2023-04-10T06:00:10;43.17;35.94;55.16;;
59284;Laerm;45056;47.602;9.886;2023-04-10T06:02:38;44.68;36.45;57.11;;
59284;Laerm;45056;47.602;9.886;2023-04-10T06:05:07;41.45;35.66;54.28;;
59284;Laerm;45056;47.602;9.886;2023-04-10T06:07:35;39.97;35.94;43.58;;
59284;Laerm;45056;47.602;9.886;2023-04-10T06:10:04;42.53;37.12;53.28;;
59284;Laerm;45056;47.602;9.886;2023-04-10T06:12:32;42.59;37.88;53.47;;
59284;Laerm;45056;47.602;9.886;2023-04-10T06:15:02;44.37;36.45;59.40;;
59284;Laerm;45056;47.602;9.886;2023-04-10T06:17:30;43.02;36.69;59.62;;
59284;Laerm;45056;47.602;9.886;2023-04-10T06:19:58;44.15;36.45;55.87;;
59284;Laerm;45056;47.602;9.886;2023-04-10T06:22:29;40.92;36.69;48.77;;
59284;Laerm;45056;47.602;9.886;2023-04-10T06:24:58;42.68;36.45;54.99;;
59284;Laerm;45056;47.602;9.886;2023-04-10T06:27:26;43.19;35.66;55.93;;
59284;Laerm;45056;47.602;9.886;2023-04-10T06:29:55;48.90;35.36;62.19;;
59284;Laerm;45056;47.602;9.886;2023-04-10T06:32:24;44.28;35.94;55.73;;
59284;Laerm;45056;47.602;9.886;2023-04-10T06:34:52;42.06;36.91;52.15;;
59284;Laerm;45056;47.602;9.886;2023-04-10T06:37:27;43.86;36.91;57.75;;
59284;Laerm;45056;47.602;9.886;2023-04-10T06:40:03;43.17;36.20;54.75;;
59284;Laerm;45056;47.602;9.886;2023-04-10T06:42:32;45.01;36.91;57.27;;
59284;Laerm;45056;47.602;9.886;2023-04-10T06:45:00;40.78;36.45;50.85;;
59284;Laerm;45056;47.602;9.886;2023-04-10T06:47:30;42.65;36.91;55.44;;
59284;Laerm;45056;47.602;9.886;2023-04-10T06:49:58;47.56;37.88;62.01;;
59284;Laerm;45056;47.602;9.886;2023-04-10T06:52:26;44.30;36.69;55.48;;
59284;Laerm;45056;47.602;9.886;2023-04-10T06:54:55;45.13;35.66;56.40;;
59284;Laerm;45056;47.602;9.886;2023-04-10T06:57:23;43.30;37.88;53.76;;
59284;Laerm;45056;47.602;9.886;2023-04-10T06:59:51;45.83;36.69;60.58;;
59284;Laerm;45056;47.602;9.886;2023-04-10T07:02:19;46.20;37.52;57.17;;
59284;Laerm;45056;47.602;9.886;2023-04-10T07:04:49;45.61;35.94;62.12;;
59284;Laerm;45056;47.602;9.886;2023-04-10T07:07:17;44.14;36.91;55.88;;
59284;Laerm;45056;47.602;9.886;2023-04-10T07:09:45;43.65;36.45;57.53;;
59284;Laerm;45056;47.602;9.886;2023-04-10T07:12:13;45.61;38.67;57.98;;
59284;Laerm;45056;47.602;9.886;2023-04-10T07:14:42;44.30;37.70;54.57;;
59284;Laerm;45056;47.602;9.886;2023-04-10T07:17:10;45.32;38.37;58.64;;
59284;Laerm;45056;47.602;9.886;2023-04-10T07:19:38;44.60;38.05;56.44;;
59284;Laerm;45056;47.602;9.886;2023-04-10T07:22:07;46.12;38.67;57.26;;
59284;Laerm;45056;47.602;9.886;2023-04-10T07:24:35;43.81;38.37;56.50;;
59284;Laerm;45056;47.602;9.886;2023-04-10T07:27:03;48.00;39.08;70.50;;
59284;Laerm;45056;47.602;9.886;2023-04-10T07:29:31;54.81;39.34;73.27;;
59284;Laerm;45056;47.602;9.886;2023-04-10T07:31:59;48.03;38.05;64.19;;
59284;Laerm;45056;47.602;9.886;2023-04-10T07:34:30;44.06;38.05;57.44;;
59284;Laerm;45056;47.602;9.886;2023-04-10T07:36:58;45.29;39.34;57.90;;
59284;Laerm;45056;47.602;9.886;2023-04-10T07:39:28;45.73;38.21;56.19;;
59284;Laerm;45056;47.602;9.886;2023-04-10T07:41:56;46.63;38.37;57.31;;
59284;Laerm;45056;47.602;9.886;2023-04-10T07:44:25;48.30;39.21;62.08;;
59284;Laerm;45056;47.602;9.886;2023-04-10T07:46:54;60.17;38.21;73.49;;
59284;Laerm;45056;47.602;9.886;2023-04-10T07:49:22;69.74;59.48;78.37;;
59284;Laerm;45056;47.602;9.886;2023-04-10T07:51:50;69.36;56.02;77.25;;
59284;Laerm;45056;47.602;9.886;2023-04-10T07:54:18;52.19;40.13;67.95;;
59284;Laerm;45056;47.602;9.886;2023-04-10T07:56:51;64.24;38.05;76.16;;
59284;Laerm;45056;47.602;9.886;2023-04-10T07:59:19;63.28;40.80;76.20;;
59284;Laerm;45056;47.602;9.886;2023-04-10T08:01:47;49.72;38.95;60.02;;
59284;Laerm;45056;47.602;9.886;2023-04-10T08:04:15;47.82;38.60;58.04;;
59284;Laerm;45056;47.602;9.886;2023-04-10T08:06:43;46.37;38.37;57.35;;
59284;Laerm;45056;47.602;9.886;2023-04-10T08:09:11;45.99;39.46;57.18;;
59284;Laerm;45056;47.602;9.886;2023-04-10T08:11:39;47.12;38.52;59.97;;
59284;Laerm;45056;47.602;9.886;2023-04-10T08:14:08;47.10;39.92;61.08;;
59284;Laerm;45056;47.602;9.886;2023-04-10T08:16:37;51.27;42.16;63.99;;
59284;Laerm;45056;47.602;9.886;2023-04-10T08:19:05;50.27;38.81;57.85;;
59284;Laerm;45056;47.602;9.886;2023-04-10T08:21:33;43.79;38.67;56.74;;
59284;Laerm;45056;47.602;9.886;2023-04-10T08:24:03;47.53;39.46;57.49;;
59284;Laerm;45056;47.602;9.886;2023-04-10T08:26:31;48.53;39.46;54.79;;
59284;Laerm;45056;47.602;9.886;2023-04-10T08:28:59;48.81;40.13;58.13;;
59284;Laerm;45056;47.602;9.886;2023-04-10T08:31:30;45.81;38.67;57.43;;
59284;Laerm;45056;47.602;9.886;2023-04-10T08:33:58;46.42;39.08;60.11;;
59284;Laerm;45056;47.602;9.886;2023-04-10T08:36:26;47.37;37.53;61.64;;
59284;Laerm;45056;47.602;9.886;2023-04-10T08:38:54;49.72;39.58;60.22;;
59284;Laerm;45056;47.602;9.886;2023-04-10T08:41:22;47.67;37.70;65.16;;
59284;Laerm;45056;47.602;9.886;2023-04-10T08:43:50;62.85;39.58;76.44;;
59284;Laerm;45056;47.602;9.886;2023-04-10T08:46:18;49.59;39.92;61.22;;
59284;Laerm;45056;47.602;9.886;2023-04-10T08:48:56;43.95;39.21;53.53;;
59284;Laerm;45056;47.602;9.886;2023-04-10T08:51:31;46.04;39.92;55.79;;
59284;Laerm;45056;47.602;9.886;2023-04-10T08:54:06;45.74;40.53;57.66;;
59284;Laerm;45056;47.602;9.886;2023-04-10T08:56:39;45.89;38.95;55.60;;
59284;Laerm;45056;47.602;9.886;2023-04-10T08:59:09;45.63;39.34;56.75;;
59284;Laerm;45056;47.602;9.886;2023-04-10T09:01:39;50.11;41.53;69.80;;
59284;Laerm;45056;47.602;9.886;2023-04-10T09:04:11;47.09;38.67;58.30;;
59284;Laerm;45056;47.602;9.886;2023-04-10T09:06:39;48.16;39.34;63.46;;
59284;Laerm;45056;47.602;9.886;2023-04-10T09:09:08;46.02;39.81;54.93;;
59284;Laerm;45056;47.602;9.886;2023-04-10T09:11:55;52.64;40.33;67.87;;
59284;Laerm;45056;47.602;9.886;2023-04-10T09:14:28;50.40;39.58;63.42;;
59284;Laerm;45056;47.602;9.886;2023-04-10T09:17:16;45.74;37.70;61.38;;
59284;Laerm;45056;47.602;9.886;2023-04-10T09:19:48;46.28;38.37;56.38;;
59284;Laerm;45056;47.602;9.886;2023-04-10T09:22:30;46.11;39.34;65.13;;
59284;Laerm;45056;47.602;9.886;2023-04-10T09:25:01;46.51;39.08;58.60;;
59284;Laerm;45056;47.602;9.886;2023-04-10T09:27:32;43.60;38.67;54.20;;
59284;Laerm;45056;47.602;9.886;2023-04-10T09:30:02;44.57;38.67;55.68;;
59284;Laerm;45056;47.602;9.886;2023-04-10T09:32:39;46.47;37.52;58.41;;
59284;Laerm;45056;47.602;9.886;2023-04-10T09:35:11;49.04;39.08;65.54;;
59284;Laerm;45056;47.602;9.886;2023-04-10T09:37:42;51.91;39.08;64.53;;
59284;Laerm;45056;47.602;9.886;2023-04-10T09:40:21;45.69;38.81;56.66;;
59284;Laerm;45056;47.602;9.886;2023-04-10T09:42:51;46.55;39.78;57.45;;
59284;Laerm;45056;47.602;9.886;2023-04-10T09:45:19;48.16;39.08;62.25;;
59284;Laerm;45056;47.602;9.886;2023-04-10T09:48:02;46.81;37.70;59.11;;
59284;Laerm;45056;47.602;9.886;2023-04-10T09:50:35;46.23;38.21;58.34;;
59284;Laerm;45056;47.602;9.886;2023-04-10T09:53:04;48.41;37.88;65.60;;
59284;Laerm;45056;47.602;9.886;2023-04-10T09:55:34;45.39;40.89;53.70;;
59284;Laerm;45056;47.602;9.886;2023-04-10T09:58:03;49.55;40.53;68.00;;
59284;Laerm;45056;47.602;9.886;2023-04-10T10:00:39;52.38;42.35;65.59;;
59284;Laerm;45056;47.602;9.886;2023-04-10T10:03:11;50.54;39.58;61.27;;
59284;Laerm;45056;47.602;9.886;2023-04-10T10:05:44;47.66;39.81;60.52;;
59284;Laerm;45056;47.602;9.886;2023-04-10T10:08:14;45.98;40.13;62.65;;
59284;Laerm;45056;47.602;9.886;2023-04-10T10:10:46;47.01;39.46;57.80;;
59284;Laerm;45056;47.602;9.886;2023-04-10T10:13:20;50.14;39.92;66.58;;
59284;Laerm;45056;47.602;9.886;2023-04-10T10:16:04;47.70;40.23;61.31;;
59284;Laerm;45056;47.602;9.886;2023-04-10T10:18:43;46.53;39.46;58.91;;
59284;Laerm;45056;47.602;9.886;2023-04-10T10:21:14;51.65;40.23;70.00;;
59284;Laerm;45056;47.602;9.886;2023-04-10T10:23:46;46.91;38.37;59.44;;
59284;Laerm;45056;47.602;9.886;2023-04-10T10:26:19;54.61;39.81;76.09;;
59284;Laerm;45056;47.602;9.886;2023-04-10T10:28:50;48.05;40.03;63.31;;
59284;Laerm;45056;47.602;9.886;2023-04-10T10:31:21;53.46;41.46;68.10;;
59284;Laerm;45056;47.602;9.886;2023-04-10T10:33:51;46.58;38.81;56.63;;
59284;Laerm;45056;47.602;9.886;2023-04-10T10:36:22;47.17;38.52;67.12;;
59284;Laerm;45056;47.602;9.886;2023-04-10T10:39:12;45.81;38.05;55.24;;
59284;Laerm;45056;47.602;9.886;2023-04-10T10:41:58;47.11;39.92;57.55;;
59284;Laerm;45056;47.602;9.886;2023-04-10T10:44:40;45.77;39.08;58.05;;
59284;Laerm;45056;47.602;9.886;2023-04-10T10:47:16;46.74;39.34;62.73;;
59284;Laerm;45056;47.602;9.886;2023-04-10T10:49:57;48.48;40.98;62.59;;
59284;Laerm;45056;47.602;9.886;2023-04-10T10:52:47;45.95;39.08;57.86;;
59284;Laerm;45056;47.602;9.886;2023-04-10T10:55:33;46.28;40.89;56.95;;
59284;Laerm;45056;47.602;9.886;2023-04-10T10:58:05;47.97;40.89;62.37;;
59284;Laerm;45056;47.602;9.886;2023-04-10T11:01:14;52.40;40.33;71.95;;
59284;Laerm;45056;47.602;9.886;2023-04-10T11:03:43;49.35;40.23;63.10;;
59284;Laerm;45056;47.602;9.886;2023-04-10T11:06:14;45.40;38.21;55.92;;
59284;Laerm;45056;47.602;9.886;2023-04-10T11:08:47;47.25;38.81;60.91;;
59284;Laerm;45056;47.602;9.886;2023-04-10T11:11:20;45.71;40.98;55.53;;
59284;Laerm;45056;47.602;9.886;2023-04-10T11:14:15;57.04;41.06;75.10;;
59284;Laerm;45056;47.602;9.886;2023-04-10T11:16:47;46.50;38.67;57.90;;
59284;Laerm;45056;47.602;9.886;2023-04-10T11:19:16;46.20;39.58;59.60;;
59284;Laerm;45056;47.602;9.886;2023-04-10T11:22:06;47.80;40.62;60.29;;
59284;Laerm;45056;47.602;9.886;2023-04-10T11:25:00;48.02;39.81;61.76;;
59284;Laerm;45056;47.602;9.886;2023-04-10T11:27:46;46.29;39.34;57.39;;
59284;Laerm;45056;47.602;9.886;2023-04-10T11:30:32;49.62;39.70;68.56;;
59284;Laerm;45056;47.602;9.886;2023-04-10T11:33:04;50.77;40.53;70.45;;
59284;Laerm;45056;47.602;9.886;2023-04-10T11:35:33;46.24;39.81;61.30;;
59284;Laerm;45056;47.602;9.886;2023-04-10T11:38:13;49.06;39.92;65.19;;
59284;Laerm;45056;47.602;9.886;2023-04-10T11:41:02;44.79;37.88;56.89;;
59284;Laerm;45056;47.602;9.886;2023-04-10T11:43:33;46.88;39.70;61.40;;
59284;Laerm;45056;47.602;9.886;2023-04-10T11:46:04;47.83;38.52;63.16;;
59284;Laerm;45056;47.602;9.886;2023-04-10T11:48:33;51.38;40.53;71.45;;
59284;Laerm;45056;47.602;9.886;2023-04-10T11:51:11;45.14;40.13;55.69;;
59284;Laerm;45056;47.602;9.886;2023-04-10T11:53:41;47.13;39.34;61.39;;
59284;Laerm;45056;47.602;9.886;2023-04-10T11:56:18;47.17;40.03;58.90;;
59284;Laerm;45056;47.602;9.886;2023-04-10T11:58:50;47.42;40.80;58.59;;
59284;Laerm;45056;47.602;9.886;2023-04-10T12:01:21;47.28;40.23;62.34;;
59284;Laerm;45056;47.602;9.886;2023-04-10T12:03:49;46.98;40.53;60.57;;
59284;Laerm;45056;47.602;9.886;2023-04-10T12:06:18;45.54;39.92;60.88;;
59284;Laerm;45056;47.602;9.886;2023-04-10T12:08:48;48.69;39.58;63.35;;
59284;Laerm;45056;47.602;9.886;2023-04-10T12:11:20;45.77;39.34;61.42;;
59284;Laerm;45056;47.602;9.886;2023-04-10T12:13:51;45.38;38.37;55.44;;
59284;Laerm;45056;47.602;9.886;2023-04-10T12:16:21;46.79;40.53;58.86;;
59284;Laerm;45056;47.602;9.886;2023-04-10T12:18:49;45.77;39.70;56.79;;
59284;Laerm;45056;47.602;9.886;2023-04-10T12:21:19;50.02;40.53;70.77;;
59284;Laerm;45056;47.602;9.886;2023-04-10T12:23:47;49.83;38.95;64.97;;
59284;Laerm;45056;47.602;9.886;2023-04-10T12:26:17;49.00;41.68;61.36;;
59284;Laerm;45056;47.602;9.886;2023-04-10T12:28:52;46.21;39.21;59.77;;
59284;Laerm;45056;47.602;9.886;2023-04-10T12:31:28;47.85;39.68;62.56;;
59284;Laerm;45056;47.602;9.886;2023-04-10T12:33:58;45.39;39.21;66.59;;
59284;Laerm;45056;47.602;9.886;2023-04-10T12:36:28;47.61;39.46;59.05;;
59284;Laerm;45056;47.602;9.886;2023-04-10T12:38:59;48.15;39.81;59.79;;
59284;Laerm;45056;47.602;9.886;2023-04-10T12:41:32;48.71;40.89;64.49;;
59284;Laerm;45056;47.602;9.886;2023-04-10T12:44:09;55.99;39.21;78.09;;
59284;Laerm;45056;47.602;9.886;2023-04-10T12:46:39;49.50;41.06;63.07;;
59284;Laerm;45056;47.602;9.886;2023-04-10T12:49:12;47.98;40.62;60.42;;
59284;Laerm;45056;47.602;9.886;2023-04-10T12:51:41;54.84;40.53;72.52;;
59284;Laerm;45056;47.602;9.886;2023-04-10T12:54:11;46.48;41.22;55.99;;
59284;Laerm;45056;47.602;9.886;2023-04-10T12:56:54;46.83;40.98;57.18;;
59284;Laerm;45056;47.602;9.886;2023-04-10T12:59:23;54.31;41.14;71.56;;
59284;Laerm;45056;47.602;9.886;2023-04-10T13:01:52;48.40;41.30;61.73;;
59284;Laerm;45056;47.602;9.886;2023-04-10T13:04:20;52.57;40.03;64.75;;
59284;Laerm;45056;47.602;9.886;2023-04-10T13:06:49;49.67;39.81;62.35;;
59284;Laerm;45056;47.602;9.886;2023-04-10T13:09:18;48.33;38.95;61.54;;
59284;Laerm;45056;47.602;9.886;2023-04-10T13:11:46;46.09;40.03;54.58;;
59284;Laerm;45056;47.602;9.886;2023-04-10T13:14:16;49.56;39.70;66.70;;
59284;Laerm;45056;47.602;9.886;2023-04-10T13:16:43;52.91;39.81;68.92;;
59284;Laerm;45056;47.602;9.886;2023-04-10T13:19:12;46.61;39.58;55.88;;
59284;Laerm;45056;47.602;9.886;2023-04-10T13:21:40;51.72;39.21;71.01;;
59284;Laerm;45056;47.602;9.886;2023-04-10T13:24:08;45.29;39.81;55.33;;
59284;Laerm;45056;47.602;9.886;2023-04-10T13:26:36;46.42;40.89;59.21;;
59284;Laerm;45056;47.602;9.886;2023-04-10T13:29:04;49.08;38.95;65.83;;
59284;Laerm;45056;47.602;9.886;2023-04-10T13:31:33;50.21;40.98;68.32;;
59284;Laerm;45056;47.602;9.886;2023-04-10T13:34:01;50.73;40.89;67.35;;
59284;Laerm;45056;47.602;9.886;2023-04-10T13:36:30;54.27;40.53;71.55;;
59284;Laerm;45056;47.602;9.886;2023-04-10T13:38:58;47.29;39.34;64.09;;
59284;Laerm;45056;47.602;9.886;2023-04-10T13:41:26;45.38;39.34;57.05;;
59284;Laerm;45056;47.602;9.886;2023-04-10T13:43:54;47.51;39.81;61.54;;
59284;Laerm;45056;47.602;9.886;2023-04-10T13:46:22;47.34;40.23;58.42;;
59284;Laerm;45056;47.602;9.886;2023-04-10T13:48:51;47.47;39.99;68.09;;
59284;Laerm;45056;47.602;9.886;2023-04-10T13:51:19;52.03;39.81;75.16;;
59284;Laerm;45056;47.602;9.886;2023-04-10T13:53:47;45.75;39.21;55.52;;
59284;Laerm;45056;47.602;9.886;2023-04-10T13:56:15;49.23;41.30;66.18;;
59284;Laerm;45056;47.602;9.886;2023-04-10T13:58:45;49.56;41.33;61.58;;
59284;Laerm;45056;47.602;9.886;2023-04-10T14:01:13;51.59;41.38;68.80;;
59284;Laerm;45056;47.602;9.886;2023-04-10T14:03:41;47.22;39.70;63.33;;
59284;Laerm;45056;47.602;9.886;2023-04-10T14:06:10;46.84;39.21;58.45;;